Terminal Aerodrome Forecast
Issued by NWS Quad Cities IA IL

Home | Current Version | Previous Version | Text Only | Print | Product List | Glossary On
Versions: 1 2 3 4 5 6 7 8 9 10 11 12 13 14 15 16 17 18 19 20 21
000
FTUS43 KDVN 300651 AAA
TAFDBQ
TAF AMD
KDBQ 300651Z 3007/0106 02008KT P6SM SCT015 SCT040
      TEMPO 3007/3011 BKN015
     FM301100 03008KT P6SM OVC020
     FM301300 03009KT P6SM OVC012
     FM301900 03011KT P6SM BKN030=

USA.gov is the U.S. government's official web portal to all federal, state and local government web resources and services.